Time;durP1;ratioP1;P1;durP2;ratioP2;P2;SDS_P1;SDS_P2;PMS_P1;PMS_P2;Temp;Humidity;BMP_temperature;BMP_pressure;BME280_temperature;BME280_humidity;BME280_pressure;Samples;Min_cycle;Max_cycle;Signal;HPM_P1;HPM_P2
2022/06/30 00:01:18;;;;;;;7.28;3.50;;;;;;;25.29;54.06;100074.94;18415025;32;20101;-54
2022/06/30 00:11:22;;;;;;;8.93;3.60;;;;;;;25.13;55.05;100071.59;18413465;32;20111;-54
2022/06/30 00:21:26;;;;;;;8.35;3.37;;;;;;;24.91;55.95;100065.06;18413211;32;20100;-54
2022/06/30 00:31:30;;;;;;;6.75;3.22;;;;;;;24.78;56.04;100062.38;18412746;32;20403;-54
2022/06/30 00:41:34;;;;;;;7.85;3.62;;;;;;;24.71;56.37;100066.38;18409439;31;155048;-54
2022/06/30 00:51:38;;;;;;;7.43;3.67;;;;;;;24.65;56.48;100067.66;18469651;31;20101;-54
2022/06/30 01:01:43;;;;;;;8.07;3.58;;;;;;;24.49;56.70;100079.38;18420249;32;20113;-54
2022/06/30 01:22:20;;;;;;;6.50;3.42;;;;;;;24.19;57.22;100071.56;18553586;32;20111;-54
2022/06/30 01:32:23;;;;;;;8.80;3.53;;;;;;;23.98;57.99;100070.13;18553316;32;20119;-54
2022/06/30 01:42:28;;;;;;;7.15;3.55;;;;;;;23.79;58.31;100082.91;18552519;32;20132;-54
2022/06/30 01:52:31;;;;;;;9.30;3.65;;;;;;;23.80;58.40;100085.50;18489884;32;20397;-54
2022/06/30 02:02:36;;;;;;;6.45;3.20;;;;;;;23.75;58.36;100090.25;18423191;32;20107;-54
2022/06/30 02:12:48;;;;;;;6.30;3.25;;;;;;;23.59;58.45;100102.81;18422092;32;20366;-54
2022/06/30 02:22:54;;;;;;;8.40;3.67;;;;;;;23.56;58.00;100090.53;18475779;31;20187;-54
2022/06/30 02:32:57;;;;;;;6.65;3.20;;;;;;;23.32;58.84;100098.22;18422042;32;20093;-54
2022/06/30 02:43:02;;;;;;;8.10;3.72;;;;;;;23.21;59.02;100097.03;18422906;32;20104;-54
2022/06/30 02:53:05;;;;;;;7.53;3.60;;;;;;;22.94;59.87;100094.22;18421725;32;20092;-54
2022/06/30 03:03:10;;;;;;;9.23;3.62;;;;;;;22.99;59.84;100092.97;18421276;32;20089;-54
2022/06/30 03:13:13;;;;;;;7.15;3.78;;;;;;;23.04;59.27;100102.53;18421445;32;20115;-54
2022/06/30 03:23:18;;;;;;;8.05;3.53;;;;;;;22.71;60.52;100112.38;18419737;32;20093;-55
2022/06/30 03:33:21;;;;;;;9.00;3.78;;;;;;;22.86;60.20;100124.81;18473199;31;20346;-54
2022/06/30 03:43:26;;;;;;;7.45;3.80;;;;;;;23.00;60.84;100125.78;18407195;32;20093;-54
2022/06/30 03:53:29;;;;;;;10.52;3.67;;;;;;;23.33;60.07;100127.41;18354709;32;20182;-54
2022/06/30 04:03:34;;;;;;;8.77;3.72;;;;;;;23.62;59.51;100135.47;18354405;32;20090;-54
2022/06/30 04:13:37;;;;;;;9.32;3.90;;;;;;;23.92;59.32;100145.16;18354453;32;20100;-54
2022/06/30 04:23:42;;;;;;;8.05;4.00;;;;;;;24.44;58.01;100156.16;18353390;32;20111;-54
2022/06/30 04:33:46;;;;;;;7.37;3.33;;;;;;;25.16;56.79;100146.19;18355411;32;20116;-54
2022/06/30 04:43:51;;;;;;;7.82;3.60;;;;;;;26.08;53.25;100148.75;18362190;32;20102;-54
2022/06/30 04:53:54;;;;;;;7.15;3.75;;;;;;;26.79;51.36;100149.97;18362100;32;20115;-54
2022/06/30 05:03:58;;;;;;;7.85;3.45;;;;;;;27.08;51.10;100146.94;18385858;32;20403;-55
2022/06/30 05:14:01;;;;;;;7.45;4.18;;;;;;;27.56;48.65;100133.41;18420517;32;20093;-54
2022/06/30 05:34:28;;;;;;;6.57;3.33;;;;;;;28.36;47.47;100132.53;18424436;32;20458;-54
2022/06/30 05:44:32;;;;;;;6.20;2.78;;;;;;;28.58;45.67;100138.81;18472164;31;20148;-55
2022/06/30 05:54:36;;;;;;;5.90;3.12;;;;;;;29.08;43.71;100140.97;18407725;32;20093;-54
2022/06/30 06:04:40;;;;;;;5.25;2.80;;;;;;;29.46;41.17;100133.34;18359473;32;20120;-54
2022/06/30 06:14:43;;;;;;;8.27;2.80;;;;;;;29.96;39.17;100137.09;18383738;32;20133;-55
2022/06/30 06:24:48;;;;;;;5.00;2.47;;;;;;;30.37;40.17;100135.22;18368929;32;20134;-55
2022/06/30 06:34:51;;;;;;;5.72;2.58;;;;;;;30.85;39.82;100143.50;18367208;32;20086;-55
2022/06/30 06:44:56;;;;;;;7.28;2.67;;;;;;;31.25;36.06;100134.41;18364543;32;20141;-55
2022/06/30 06:54:59;;;;;;;5.35;2.50;;;;;;;31.87;33.00;100125.03;18447998;31;20092;-55
2022/06/30 07:05:04;;;;;;;5.00;2.40;;;;;;;31.89;31.21;100114.06;18419714;32;20110;-55
2022/06/30 07:15:11;;;;;;;5.95;2.60;;;;;;;32.42;30.77;100123.28;18378806;32;20089;-55
2022/06/30 07:25:15;;;;;;;5.45;2.30;;;;;;;33.44;31.90;100103.19;18418514;31;20101;-54
2022/06/30 07:35:19;;;;;;;5.82;2.50;;;;;;;33.56;29.82;100099.19;18403813;32;20111;-55
2022/06/30 07:45:24;;;;;;;3.65;2.03;;;;;;;34.12;28.64;100096.06;18419419;31;20093;-55
2022/06/30 07:55:27;;;;;;;4.18;2.20;;;;;;;35.08;27.59;100094.81;18354693;32;20127;-55
2022/06/30 08:05:32;;;;;;;3.62;1.87;;;;;;;35.35;23.91;100073.72;18416284;32;20101;-55
2022/06/30 08:15:35;;;;;;;6.28;2.25;;;;;;;35.82;24.42;100066.63;18397637;32;20100;-55
2022/06/30 08:25:40;;;;;;;4.90;2.03;;;;;;;36.08;22.36;100069.03;18427153;32;20116;-55
2022/06/30 08:35:44;;;;;;;2.95;1.80;;;;;;;36.02;23.44;100068.88;18426702;32;20089;-55
2022/06/30 08:46:03;;;;;;;5.05;2.45;;;;;;;36.46;21.68;100064.72;18426819;32;20145;-55
2022/06/30 08:56:07;;;;;;;3.65;1.75;;;;;;;36.90;21.30;100055.84;18425968;32;20140;-55
2022/06/30 09:06:12;;;;;;;4.40;1.90;;;;;;;37.12;20.29;100049.69;18425032;32;20140;-55
2022/06/30 09:16:32;;;;;;;4.05;1.95;;;;;;;37.14;21.71;100028.62;18384764;32;20094;-55
2022/06/30 09:26:37;;;;;;;3.20;1.98;;;;;;;37.79;19.97;100025.25;18360294;32;20648;-55
2022/06/30 09:36:40;;;;;;;4.57;1.90;;;;;;;37.33;20.39;100041.66;18360614;32;20141;-57
2022/06/30 09:46:57;;;;;;;3.97;1.80;;;;;;;36.75;19.11;100030.50;18400928;32;20097;-55
2022/06/30 09:57:02;;;;;;;3.92;1.50;;;;;;;37.00;19.33;100043.87;18410080;32;20101;-55
2022/06/30 10:07:07;;;;;;;4.30;1.85;;;;;;;37.82;17.37;100020.28;18386305;32;20115;-56
2022/06/30 10:17:15;;;;;;;5.10;1.80;;;;;;;37.53;19.21;100018.44;18364854;32;20129;-55
2022/06/30 10:27:22;;;;;;;2.53;1.23;;;;;;;38.82;16.93;100003.19;18379594;32;20088;-55
2022/06/30 10:37:29;;;;;;;3.05;1.77;;;;;;;38.15;18.00;100002.63;18474296;31;20104;-56
2022/06/30 10:47:34;;;;;;;2.65;1.60;;;;;;;38.74;17.34;99986.97;18421466;32;20111;-57
2022/06/30 10:58:06;;;;;;;3.50;1.87;;;;;;;38.56;17.36;99976.53;18420833;32;20116;-57
2022/06/30 11:08:48;;;;;;;3.60;1.70;;;;;;;39.13;17.01;99965.59;18399864;32;20093;-57
2022/06/30 11:18:52;;;;;;;2.55;1.50;;;;;;;39.80;16.50;99970.47;18410899;32;20162;-56
2022/06/30 11:28:56;;;;;;;3.75;1.40;;;;;;;39.33;16.34;99959.38;18420787;32;20153;-57
2022/06/30 11:39:01;;;;;;;2.62;1.50;;;;;;;39.64;14.68;99949.84;18394776;32;20112;-57
2022/06/30 11:49:06;;;;;;;2.87;1.48;;;;;;;38.00;16.24;99912.75;18411981;32;20201;-56
2022/06/30 11:59:09;;;;;;;2.45;1.48;;;;;;;37.89;15.56;99922.28;18418781;32;20633;-57
2022/06/30 12:09:14;;;;;;;3.65;1.70;;;;;;;39.51;16.33;99912.44;18418168;32;20127;-56
2022/06/30 12:19:17;;;;;;;3.92;1.60;;;;;;;39.42;16.07;99909.06;18419234;31;20116;-57
2022/06/30 12:29:23;;;;;;;9.93;2.00;;;;;;;39.34;15.05;99896.38;18415532;32;20105;-57
2022/06/30 12:39:26;;;;;;;3.70;1.70;;;;;;;40.08;15.27;99901.16;18416038;31;20145;-56
2022/06/30 12:49:31;;;;;;;4.32;1.83;;;;;;;38.27;16.65;99874.84;18405221;32;20101;-57
2022/06/30 12:59:45;;;;;;;2.65;1.60;;;;;;;39.24;15.27;99880.41;18411257;32;20360;-57
2022/06/30 13:09:50;;;;;;;2.12;1.48;;;;;;;39.72;15.98;99880.53;18455912;31;20103;-57
2022/06/30 13:19:53;;;;;;;3.12;1.52;;;;;;;40.61;15.32;99852.94;18372731;32;20112;-56
2022/06/30 13:29:57;;;;;;;3.60;1.50;;;;;;;40.06;15.48;99843.97;18406259;32;20161;-57
2022/06/30 13:40:01;;;;;;;6.47;1.75;;;;;;;39.51;15.80;99849.63;18423153;31;20089;-56
2022/06/30 13:50:07;;;;;;;3.35;1.30;;;;;;;40.78;13.93;99843.19;18361844;32;20077;-57
2022/06/30 14:00:11;;;;;;;3.25;1.50;;;;;;;40.86;13.46;99835.81;18421806;32;20107;-56
2022/06/30 14:10:16;;;;;;;3.03;1.35;;;;;;;40.31;13.68;99831.53;18420669;32;20109;-57
2022/06/30 14:20:19;;;;;;;3.08;1.30;;;;;;;40.56;13.35;99830.84;18421229;32;20100;-56
2022/06/30 14:30:24;;;;;;;2.10;1.12;;;;;;;39.95;13.26;99837.28;18422682;32;20110;-57
2022/06/30 14:40:27;;;;;;;3.28;1.30;;;;;;;40.21;14.25;99835.53;18369484;31;20133;-56
2022/06/30 14:50:33;;;;;;;4.43;1.60;;;;;;;39.98;13.71;99813.31;18356989;32;20168;-56
2022/06/30 15:00:38;;;;;;;3.42;1.45;;;;;;;39.95;13.29;99815.44;18355394;32;20101;-56
2022/06/30 15:10:43;;;;;;;3.62;1.35;;;;;;;40.10;13.02;99814.34;18364575;31;20093;-56
2022/06/30 15:24:04;;;;;;;4.72;1.60;;;;;;;39.85;13.00;99801.31;18379350;32;20108;-56
2022/06/30 15:31:11;;;;;;;2.97;1.50;;;;;;;39.20;13.17;99801.91;18402860;32;20085;-56
2022/06/30 15:41:15;;;;;;;5.93;1.75;;;;;;;38.92;14.91;99800.94;18380652;32;20128;-56
2022/06/30 15:51:19;;;;;;;5.32;1.70;;;;;;;39.29;15.77;99784.28;18405825;32;20461;-56
2022/06/30 16:01:23;;;;;;;3.80;1.77;;;;;;;38.19;16.90;99785.09;18416679;32;20092;-55
2022/06/30 16:11:27;;;;;;;3.97;1.80;;;;;;;38.19;17.29;99775.03;18469077;31;20098;-56
2022/06/30 16:21:30;;;;;;;4.25;2.15;;;;;;;38.47;18.98;99768.66;18405042;32;20386;-56
2022/06/30 16:31:35;;;;;;;8.90;2.10;;;;;;;38.37;18.37;99771.78;18387500;32;20093;-56
2022/06/30 16:41:38;;;;;;;4.18;1.92;;;;;;;38.17;19.40;99760.75;18417951;32;20384;-56
2022/06/30 16:51:44;;;;;;;3.30;1.80;;;;;;;38.17;19.22;99771.66;18475433;31;20113;-56
2022/06/30 17:01:47;;;;;;;4.57;2.15;;;;;;;37.72;20.68;99764.63;18423058;32;20126;-56
2022/06/30 17:11:52;;;;;;;7.97;2.28;;;;;;;37.94;21.59;99778.19;18425818;32;20174;-56
2022/06/30 17:21:55;;;;;;;4.22;2.12;;;;;;;37.69;22.36;99781.38;18421968;32;20097;-56
2022/06/30 17:32:00;;;;;;;8.23;3.05;;;;;;;37.34;23.99;99789.41;18477297;31;20427;-56
2022/06/30 17:42:04;;;;;;;6.93;2.70;;;;;;;37.19;25.09;99787.59;18422761;31;20120;-56
2022/06/30 17:52:08;;;;;;;7.95;3.08;;;;;;;36.81;26.81;99795.94;18476508;31;20104;-56
2022/06/30 18:02:12;;;;;;;6.82;2.97;;;;;;;36.40;26.99;99805.44;18422608;32;20622;-56
2022/06/30 18:12:16;;;;;;;6.90;3.30;;;;;;;35.94;28.57;99811.81;18421846;32;20116;-56
2022/06/30 18:22:19;;;;;;;7.62;3.40;;;;;;;35.40;29.87;99817.16;18421530;32;20089;-56
2022/06/30 18:32:26;;;;;;;12.57;3.50;;;;;;;34.85;31.77;99824.41;18422623;32;20137;-56
2022/06/30 18:42:30;;;;;;;8.70;3.53;;;;;;;34.31;33.76;99825.91;18422078;32;20097;-56
2022/06/30 18:52:34;;;;;;;7.45;3.20;;;;;;;33.73;34.84;99843.06;18420237;32;20111;-55
2022/06/30 19:02:37;;;;;;;6.65;3.03;;;;;;;33.21;36.22;99846.84;18410574;32;20119;-56
2022/06/30 19:12:42;;;;;;;10.32;3.50;;;;;;;32.76;37.33;99857.78;18377041;32;20127;-57
2022/06/30 19:22:51;;;;;;;7.72;3.37;;;;;;;32.36;38.46;99876.31;18384592;32;20107;-56
2022/06/30 19:33:11;;;;;;;9.37;3.30;;;;;;;31.96;39.54;99886.59;18384790;32;20115;-58
2022/06/30 19:43:14;;;;;;;6.03;3.33;;;;;;;31.38;40.46;99913.00;18438163;31;20097;-56
2022/06/30 19:53:19;;;;;;;7.57;3.60;;;;;;;31.08;40.25;99912.28;18385182;32;20104;-56
2022/06/30 20:13:44;;;;;;;6.10;3.62;;;;;;;30.52;42.22;99939.09;18415951;32;20121;-55
2022/06/30 20:23:47;;;;;;;7.37;3.45;;;;;;;30.23;42.95;99953.44;18401869;32;20110;-56
2022/06/30 20:33:52;;;;;;;8.70;3.83;;;;;;;29.94;44.01;99972.25;18362485;32;20099;-55
2022/06/30 20:43:55;;;;;;;8.48;4.22;;;;;;;29.73;45.29;99986.63;18361945;32;20116;-56
2022/06/30 20:54:00;;;;;;;7.55;4.05;;;;;;;29.55;46.08;99997.22;18379367;32;20089;-55
2022/06/30 21:04:04;;;;;;;7.87;4.20;;;;;;;29.30;46.39;100002.03;18399653;32;20119;-55
2022/06/30 21:14:09;;;;;;;11.55;4.50;;;;;;;29.18;47.43;100012.88;18455408;31;20101;-55
2022/06/30 21:24:12;;;;;;;8.15;4.37;;;;;;;29.04;47.72;100021.31;18415207;32;20085;-56
2022/06/30 21:34:16;;;;;;;7.93;4.35;;;;;;;28.99;47.81;100012.78;18476540;31;20136;-56
2022/06/30 21:44:20;;;;;;;10.23;4.35;;;;;;;28.62;49.30;100014.94;18476444;31;20150;-56
2022/06/30 21:54:25;;;;;;;10.80;4.60;;;;;;;28.45;49.69;100027.09;18423373;32;20119;-56
2022/06/30 22:04:30;;;;;;;9.50;4.43;;;;;;;28.27;50.00;100026.81;18422053;32;20121;-56
2022/06/30 22:14:35;;;;;;;11.27;4.10;;;;;;;27.92;50.79;100035.91;18474383;31;20112;-56
2022/06/30 22:24:38;;;;;;;9.27;5.00;;;;;;;27.97;50.52;100042.59;18423950;32;20115;-55
2022/06/30 22:34:43;;;;;;;10.85;4.78;;;;;;;27.74;51.65;100041.78;18422185;32;20353;-55
2022/06/30 22:44:47;;;;;;;11.12;4.50;;;;;;;27.59;51.70;100033.16;18421615;32;20111;-56
2022/06/30 22:54:51;;;;;;;9.13;4.68;;;;;;;27.44;52.18;100035.19;18421646;32;20115;-56
2022/06/30 23:04:55;;;;;;;10.70;5.10;;;;;;;27.28;52.58;100033.72;18420662;32;20361;-56
2022/06/30 23:15:01;;;;;;;13.13;5.22;;;;;;;27.04;53.40;100043.69;18420901;32;20104;-56
2022/06/30 23:25:06;;;;;;;10.48;4.93;;;;;;;26.83;54.34;100052.34;18357634;32;20089;-55
2022/06/30 23:35:10;;;;;;;8.93;4.57;;;;;;;26.70;54.41;100050.63;18384901;32;20093;-56
2022/06/30 23:45:14;;;;;;;11.85;5.00;;;;;;;26.49;55.18;100057.59;18419349;32;20118;-56
2022/06/30 23:55:19;;;;;;;9.65;4.87;;;;;;;26.24;56.16;100057.59;18419208;32;20115;-57
